| time (UTC) | temp C | wind direction | speed KPH | gust KPH | rain 1hr cm | rain 24hr cm | rain mn cm | humidity % | barometer mb |
| 20260507065019 | 6 | 90 | 1.6 | 6.4 | 0.00 | 0.61 | 0.10 | 98 | 1013.3 |
| 20260507064019 | 6 | 293 | 1.6 | 6.4 | 0.00 | 0.61 | 0.10 | 98 | 1013.1 |
| 20260507063019 | 6 | 315 | 1.6 | 4.8 | 0.00 | 0.61 | 0.10 | 98 | 1013.1 |
| 20260507062019 | 6 | 23 | 1.6 | 4.8 | 0.00 | 0.64 | 0.10 | 98 | 1012.9 |
| 20260507061019 | 6 | 23 | 3.2 | 8.0 | 0.00 | 0.64 | 0.10 | 98 | 1012.8 |
| 20260507060019 | 6 | 0 | 1.6 | 3.2 | 0.00 | 0.64 | 0.10 | 98 | 1012.8 |
| 20260507055019 | 6 | 338 | 1.6 | 4.8 | 0.00 | 0.66 | 0.10 | 98 | 1012.7 |
| 20260507054019 | 6 | 0 | 1.6 | 4.8 | 0.00 | 0.69 | 0.10 | 98 | 1012.5 |
| 20260507053019 | 6 | 0.0 | 1.6 | 0.00 | 0.69 | 0.10 | 98 | 1012.5 | |
| 20260507052018 | 6 | 23 | 1.6 | 4.8 | 0.00 | 0.69 | 0.10 | 98 | 1012.4 |
| 20260507051019 | 6 | 23 | 1.6 | 4.8 | 0.00 | 0.69 | 0.10 | 98 | 1012.3 |
| 20260507050019 | 6 | 23 | 1.6 | 4.8 | 0.00 | 0.71 | 0.10 | 98 | 1012.2 |
| 20260507045019 | 6 | 23 | 1.6 | 6.4 | 0.00 | 0.71 | 0.10 | 98 | 1012.0 |
| 20260507044018 | 6 | 338 | 1.6 | 3.2 | 0.00 | 0.71 | 0.10 | 98 | 1011.9 |
| 20260507043018 | 6 | 45 | 1.6 | 6.4 | 0.00 | 0.74 | 0.10 | 98 | 1011.8 |
| 20260507042019 | 6 | 45 | 1.6 | 4.8 | 0.00 | 0.74 | 0.10 | 98 | 1011.7 |
| 20260507041018 | 6 | 45 | 3.2 | 6.4 | 0.00 | 0.74 | 0.10 | 98 | 1011.6 |
| 20260507040019 | 6 | 23 | 1.6 | 6.4 | 0.00 | 0.76 | 0.10 | 98 | 1011.6 |
| 20260507035018 | 6 | 0.0 | 3.2 | 0.00 | 0.76 | 0.10 | 98 | 1011.6 | |
| 20260507034018 | 6 | 0.0 | 3.2 | 0.03 | 0.76 | 0.10 | 98 | 1011.5 | |
| 20260507033018 | 6 | 338 | 1.6 | 6.4 | 0.03 | 0.79 | 0.10 | 98 | 1011.5 |
| 20260507032019 | 6 | 0.0 | 3.2 | 0.03 | 0.79 | 0.10 | 98 | 1011.5 | |
| 20260507031018 | 6 | 338 | 1.6 | 4.8 | 0.03 | 0.79 | 0.10 | 98 | 1011.4 |
| 20260507030018 | 6 | 338 | 1.6 | 6.4 | 0.05 | 0.81 | 0.10 | 98 | 1011.2 |
| 20260507025018 | 6 | 0 | 1.6 | 6.4 | 0.05 | 0.81 | 0.10 | 98 | 1011.2 |
| 20260507024019 | 6 | 0 | 1.6 | 4.8 | 0.03 | 0.81 | 0.08 | 98 | 1011.1 |
| 20260507023018 | 6 | 0 | 1.6 | 6.4 | 0.03 | 0.84 | 0.08 | 98 | 1011.2 |
| 20260507022018 | 6 | 68 | 3.2 | 8.0 | 0.05 | 0.84 | 0.08 | 98 | 1011.1 |
| 20260507021018 | 6 | 0 | 1.6 | 6.4 | 0.05 | 0.86 | 0.08 | 98 | 1011.0 |
| 20260507020018 | 6 | 0 | 1.6 | 8.0 | 0.03 | 0.84 | 0.05 | 98 | 1010.8 |
| 20260507015018 | 6 | 0 | 1.6 | 6.4 | 0.05 | 0.86 | 0.05 | 98 | 1010.8 |
| 20260507014018 | 6 | 0.0 | 4.8 | 0.05 | 0.89 | 0.05 | 98 | 1010.9 | |
| 20260507013018 | 6 | 23 | 3.2 | 6.4 | 0.05 | 0.89 | 0.05 | 98 | 1010.8 |
| 20260507012018 | 6 | 68 | 4.8 | 14.5 | 0.03 | 0.89 | 0.05 | 98 | 1010.6 |
| 20260507011018 | 6 | 68 | 4.8 | 16.1 | 0.03 | 0.89 | 0.05 | 98 | 1010.5 |
| 20260507010018 | 6 | 68 | 3.2 | 6.4 | 0.03 | 0.89 | 0.05 | 98 | 1010.5 |
| 20260507005018 | 6 | 23 | 3.2 | 6.4 | 0.00 | 0.89 | 0.03 | 98 | 1010.5 |
| 20260507004018 | 6 | 45 | 1.6 | 6.4 | 0.00 | 0.91 | 0.03 | 98 | 1010.3 |
| 20260507003018 | 6 | 45 | 4.8 | 12.9 | 0.00 | 0.94 | 0.03 | 98 | 1010.2 |
| 20260507002020 | 6 | 338 | 3.2 | 8.0 | 0.00 | 0.97 | 0.03 | 98 | 1010.2 |
| 20260507001020 | 6 | 338 | 3.2 | 14.5 | 0.03 | 0.99 | 0.03 | 98 | 1010.1 |
| 20260507000018 | 6 | 23 | 3.2 | 9.7 | 0.03 | 0.99 | 0.03 | 98 | 1010.1 |
| 20260506235018 | 6 | 0 | 4.8 | 14.5 | 0.03 | 1.04 | 0.03 | 98 | 1010.2 |
| 20260506234020 | 6 | 23 | 1.6 | 4.8 | 0.03 | 1.07 | 0.03 | 98 | 1010.3 |
| 20260506233020 | 6 | 45 | 3.2 | 8.0 | 0.03 | 1.09 | 0.03 | 98 | 1010.1 |
| 20260506232018 | 6 | 68 | 1.6 | 6.4 | 0.03 | 1.12 | 0.03 | 98 | 1010.2 |
| 20260506231020 | 6 | 68 | 3.2 | 9.7 | 0.00 | 1.14 | 0.00 | 98 | 1010.0 |
| 20260506230020 | 6 | 23 | 3.2 | 8.0 | 0.00 | 1.17 | 0.00 | 98 | 1010.2 |
| 20260506225018 | 6 | 45 | 1.6 | 4.8 | 0.00 | 1.19 | 0.00 | 98 | 1010.1 |
| 20260506224018 | 6 | 0 | 3.2 | 9.7 | 0.00 | 1.22 | 0.00 | 98 | 1010.0 |
| 20260506223020 | 6 | 90 | 3.2 | 6.4 | 0.03 | 1.27 | 0.00 | 98 | 1009.8 |
| 20260506222020 | 6 | 45 | 1.6 | 6.4 | 0.03 | 1.27 | 0.00 | 98 | 1009.9 |
| 20260506221020 | 6 | 23 | 3.2 | 8.0 | 0.03 | 1.32 | 0.00 | 98 | 1009.8 |
| 20260506220020 | 6 | 45 | 3.2 | 12.9 | 0.05 | 1.35 | 1.35 | 98 | 1009.8 |
| 20260506215018 | 6 | 45 | 4.8 | 12.9 | 0.05 | 1.37 | 1.35 | 98 | 1009.8 |
| 20260506214019 | 6 | 68 | 3.2 | 9.7 | 0.05 | 1.37 | 1.35 | 98 | 1009.7 |
| 20260506213019 | 6 | 23 | 3.2 | 8.0 | 0.03 | 1.40 | 1.32 | 98 | 1009.7 |
| 20260506212019 | 6 | 45 | 3.2 | 8.0 | 0.03 | 1.42 | 1.32 | 98 | 1009.6 |
| 20260506211018 | 6 | 23 | 4.8 | 11.3 | 0.03 | 1.45 | 1.32 | 98 | 1009.6 |
| 20260506210018 | 6 | 23 | 3.2 | 8.0 | 0.00 | 1.45 | 1.30 | 98 | 1009.6 |
| 20260506205019 | 6 | 23 | 3.2 | 8.0 | 0.00 | 1.47 | 1.30 | 98 | 1009.4 |
| 20260506204018 | 6 | 23 | 3.2 | 11.3 | 0.03 | 1.52 | 1.30 | 98 | 1009.4 |
| 20260506203018 | 6 | 0 | 3.2 | 8.0 | 0.03 | 1.55 | 1.30 | 98 | 1009.3 |
| 20260506202018 | 6 | 23 | 3.2 | 8.0 | 0.03 | 1.57 | 1.30 | 98 | 1009.2 |
| 20260506201018 | 6 | 0 | 3.2 | 9.7 | 0.03 | 1.70 | 1.30 | 98 | 1009.3 |
| 20260506200018 | 6 | 45 | 3.2 | 6.4 | 0.03 | 1.75 | 1.30 | 98 | 1009.2 |
| 20260506195018 | 6 | 45 | 3.2 | 9.7 | 0.03 | 1.78 | 1.30 | 98 | 1009.1 |
| 20260506194018 | 6 | 0 | 4.8 | 14.5 | 0.00 | 1.75 | 1.27 | 98 | 1009.0 |
| 20260506193018 | 6 | 23 | 3.2 | 8.0 | 0.00 | 1.78 | 1.27 | 98 | 1009.0 |
| 20260506192018 | 6 | 45 | 3.2 | 8.0 | 0.03 | 1.80 | 1.27 | 98 | 1008.9 |
| 20260506191018 | 6 | 23 | 3.2 | 11.3 | 0.03 | 1.83 | 1.27 | 98 | 1008.7 |
| 20260506190019 | 6 | 23 | 3.2 | 12.9 | 0.03 | 1.83 | 1.27 | 98 | 1008.5 |
| 20260506185021 | 7 | 45 | 3.2 | 8.0 | 0.05 | 1.83 | 1.27 | 98 | 1008.4 |
| 20260506184018 | 6 | 45 | 4.8 | 12.9 | 0.05 | 1.85 | 1.27 | 98 | 1008.3 |
| 20260506183018 | 7 | 45 | 3.2 | 12.9 | 0.05 | 1.85 | 1.27 | 98 | 1008.2 |
| 20260506182018 | 7 | 45 | 3.2 | 9.7 | 0.03 | 1.85 | 1.27 | 98 | 1008.2 |
| 20260506181020 | 7 | 23 | 4.8 | 8.0 | 0.03 | 1.85 | 1.27 | 98 | 1008.2 |
| 20260506180020 | 7 | 45 | 3.2 | 8.0 | 0.03 | 1.85 | 1.27 | 98 | 1008.1 |
| 20260506175020 | 7 | 45 | 3.2 | 8.0 | 0.00 | 1.85 | 1.24 | 98 | 1008.0 |
| 20260506174018 | 7 | 23 | 3.2 | 8.0 | 0.00 | 1.85 | 1.24 | 98 | 1007.9 |
| 20260506173018 | 7 | 23 | 3.2 | 6.4 | 0.00 | 1.85 | 1.24 | 98 | 1007.9 |
| 20260506172018 | 7 | 45 | 3.2 | 6.4 | 0.00 | 1.85 | 1.24 | 98 | 1007.8 |
| 20260506171020 | 7 | 45 | 3.2 | 11.3 | 0.00 | 1.85 | 1.24 | 98 | 1007.7 |
| 20260506170018 | 7 | 23 | 3.2 | 8.0 | 0.00 | 1.85 | 1.24 | 98 | 1007.6 |
| 20260506165018 | 7 | 23 | 1.6 | 8.0 | 0.00 | 1.85 | 1.24 | 98 | 1007.6 |
| 20260506164020 | 7 | 0 | 1.6 | 6.4 | 0.00 | 1.85 | 1.24 | 98 | 1007.6 |
| 20260506163020 | 7 | 45 | 1.6 | 6.4 | 0.00 | 1.85 | 1.24 | 98 | 1007.6 |
| 20260506162018 | 7 | 23 | 4.8 | 12.9 | 0.00 | 1.85 | 1.24 | 98 | 1007.5 |
| 20260506161020 | 7 | 23 | 4.8 | 12.9 | 0.00 | 1.85 | 1.24 | 98 | 1007.4 |
| 20260506160020 | 7 | 23 | 3.2 | 8.0 | 0.00 | 1.85 | 1.24 | 98 | 1007.3 |
| 20260506155020 | 7 | 45 | 3.2 | 12.9 | 0.00 | 1.85 | 1.24 | 98 | 1007.4 |
| 20260506154020 | 7 | 45 | 1.6 | 4.8 | 0.03 | 1.85 | 1.24 | 98 | 1007.3 |
| 20260506153020 | 7 | 68 | 4.8 | 9.7 | 0.03 | 1.85 | 1.24 | 98 | 1007.2 |
| 20260506152020 | 7 | 68 | 4.8 | 9.7 | 0.03 | 1.85 | 1.24 | 98 | 1007.3 |
| 20260506151020 | 7 | 23 | 4.8 | 9.7 | 0.05 | 1.85 | 1.24 | 98 | 1007.1 |
| 20260506150020 | 7 | 45 | 4.8 | 17.7 | 0.05 | 1.85 | 1.24 | 98 | 1007.1 |
| 20260506145020 | 7 | 45 | 4.8 | 9.7 | 0.05 | 1.85 | 1.24 | 98 | 1007.0 |
| 20260506144020 | 7 | 68 | 4.8 | 14.5 | 0.05 | 1.83 | 1.22 | 98 | 1006.9 |
| 20260506143020 | 7 | 45 | 4.8 | 14.5 | 0.05 | 1.83 | 1.22 | 98 | 1006.9 |
| 20260506142020 | 7 | 45 | 3.2 | 8.0 | 0.05 | 1.83 | 1.22 | 98 | 1006.9 |
| 20260506141019 | 7 | 45 | 4.8 | 12.9 | 0.05 | 1.83 | 1.19 | 98 | 1006.9 |
| 20260506140019 | 7 | 45 | 4.8 | 12.9 | 0.08 | 1.83 | 1.19 | 98 | 1006.8 |
| 20260506135019 | 7 | 45 | 3.2 | 8.0 | 0.10 | 1.83 | 1.19 | 98 | 1006.8 |
| 20260506134020 | 7 | 45 | 3.2 | 11.3 | 0.10 | 1.80 | 1.17 | 98 | 1006.8 |
| 20260506133020 | 7 | 23 | 3.2 | 11.3 | 0.10 | 1.80 | 1.17 | 98 | 1006.7 |
| 20260506132019 | 7 | 23 | 6.4 | 14.5 | 0.10 | 1.78 | 1.17 | 98 | 1006.7 |
| 20260506131019 | 7 | 23 | 3.2 | 9.7 | 0.10 | 1.75 | 1.14 | 98 | 1006.6 |
| 20260506130020 | 7 | 23 | 4.8 | 11.3 | 0.10 | 1.75 | 1.12 | 98 | 1006.5 |
| 20260506125020 | 7 | 45 | 4.8 | 14.5 | 0.10 | 1.73 | 1.09 | 98 | 1006.5 |
| 20260506124019 | 7 | 23 | 4.8 | 9.7 | 0.08 | 1.70 | 1.09 | 98 | 1006.5 |
| 20260506123019 | 7 | 23 | 4.8 | 11.3 | 0.08 | 1.70 | 1.09 | 98 | 1006.4 |
| 20260506122020 | 7 | 23 | 4.8 | 12.9 | 0.05 | 1.68 | 1.07 | 98 | 1006.4 |
| 20260506121020 | 7 | 45 | 3.2 | 11.3 | 0.05 | 1.65 | 1.04 | 98 | 1006.3 |
| 20260506120019 | 7 | 45 | 4.8 | 9.7 | 0.03 | 1.65 | 1.02 | 98 | 1006.1 |
| 20260506115019 | 7 | 45 | 4.8 | 8.0 | 0.00 | 1.63 | 0.99 | 98 | 1006.2 |
| 20260506114020 | 7 | 68 | 3.2 | 9.7 | 0.00 | 1.63 | 0.99 | 98 | 1006.0 |
| 20260506113020 | 7 | 45 | 3.2 | 12.9 | 0.00 | 1.63 | 0.99 | 98 | 1005.9 |
| 20260506112019 | 7 | 45 | 3.2 | 8.0 | 0.00 | 1.63 | 0.99 | 98 | 1005.8 |
| 20260506111019 | 8 | 45 | 3.2 | 9.7 | 0.00 | 1.63 | 0.99 | 98 | 1005.8 |
| 20260506110019 | 8 | 338 | 1.6 | 6.4 | 0.03 | 1.65 | 0.99 | 98 | 1006.0 |
| 20260506105019 | 8 | 45 | 3.2 | 8.0 | 0.03 | 1.65 | 0.99 | 98 | 1005.9 |
| 20260506104019 | 8 | 68 | 3.2 | 6.4 | 0.03 | 1.65 | 0.99 | 98 | 1006.0 |
| 20260506103019 | 8 | 23 | 1.6 | 8.0 | 0.03 | 1.65 | 0.99 | 98 | 1005.7 |
| 20260506102019 | 8 | 338 | 3.2 | 9.7 | 0.03 | 1.65 | 0.99 | 98 | 1005.7 |
| 20260506101019 | 8 | 0 | 1.6 | 8.0 | 0.05 | 1.65 | 0.99 | 98 | 1005.6 |
| 20260506100019 | 8 | 45 | 4.8 | 9.7 | 0.03 | 1.63 | 0.99 | 98 | 1005.6 |
| 20260506095019 | 8 | 45 | 3.2 | 8.0 | 0.03 | 1.63 | 0.99 | 98 | 1005.5 |
| 20260506094019 | 8 | 45 | 3.2 | 6.4 | 0.05 | 1.65 | 0.99 | 98 | 1005.5 |
| 20260506093019 | 8 | 45 | 1.6 | 4.8 | 0.05 | 1.65 | 0.99 | 98 | 1005.3 |
| 20260506092019 | 8 | 45 | 1.6 | 6.4 | 0.05 | 1.65 | 0.99 | 98 | 1005.3 |
| 20260506091019 | 8 | 68 | 1.6 | 6.4 | 0.05 | 1.63 | 0.97 | 98 | 1005.3 |
| 20260506090019 | 8 | 45 | 1.6 | 6.4 | 0.08 | 1.63 | 0.97 | 98 | 1005.1 |
| 20260506085019 | 8 | 68 | 1.6 | 6.4 | 0.10 | 1.63 | 0.97 | 98 | 1005.1 |
| 20260506084019 | 8 | 23 | 1.6 | 6.4 | 0.10 | 1.60 | 0.94 | 98 | 1004.9 |
| 20260506083019 | 8 | 90 | 1.6 | 4.8 | 0.08 | 1.57 | 0.91 | 98 | 1004.8 |
| 20260506082019 | 8 | 90 | 1.6 | 8.0 | 0.08 | 1.57 | 0.91 | 98 | 1004.8 |
| 20260506081019 | 8 | 68 | 3.2 | 8.0 | 0.05 | 1.55 | 0.89 | 98 | 1004.7 |
| 20260506073019 | 8 | 23 | 3.2 | 9.7 | 0.03 | 1.50 | 0.84 | 98 | 1004.7 |
| 20260506072019 | 8 | 45 | 3.2 | 8.0 | 0.05 | 1.50 | 0.84 | 98 | 1004.7 |
| 20260506071019 | 8 | 45 | 3.2 | 6.4 | 0.05 | 1.50 | 0.84 | 98 | 1004.6 |